Tuesday, August 21, 2018, 12:03 AM GMT
Back to Local

CYOW, Ottawa Int'L. Ont.

Location: , , Canada Lat: 45.317
Local Time: 12:03 AM GMT ( 0:03 GMT) Lon: -75.667
Time Zone: GMT Elev: 380 ft

Show me the last for .
Show Decoded

2018-08-20 23:00 METAR CYOW 202300Z 16003KT 15SM FEW060 SCT250 24/17 A3007 RMK SC1CI4 SC TR
                 SLP185 DENSITY ALT 1400FT =
2018-08-20 22:00 METAR CYOW 202200Z 16003KT 15SM FEW050 FEW170 SCT220 SCT250 26/14 A3008 RMK
                 CU1AC1CI2CI1 CU TR SLP186 DENSITY ALT 1600FT =
2018-08-20 21:00 METAR CYOW 202100Z 15009KT 15SM FEW050 SCT180 SCT220 SCT250 27/14 A3008 RMK
                 CU2AC1CI1CI1 CI TR SLP186 DENSITY ALT 1700FT =
2018-08-20 20:00 METAR CYOW 202000Z 16008KT 15SM SCT050 SCT180 BKN220 27/15 A3008 RMK CU3AC1CI2
                 AC TR SLP187 DENSITY ALT 1700FT =
2018-08-20 19:00 METAR CYOW 201900Z 13011KT 15SM SCT050 BKN220 27/15 A3010 RMK CU3CI2 SLP194
                 DENSITY ALT 1700FT =
2018-08-20 18:00 METAR CYOW 201800Z 17006KT 120V210 15SM BKN045 27/15 A3011 RMK CU6 SLP199
                 DENSITY ALT 1700FT =
2018-08-20 17:00 METAR CYOW 201700Z VRB02KT 15SM BKN030 BKN250 26/16 A3012 RMK CU5CI1 CI TR
                 SLP201 DENSITY ALT 1500FT =
2018-08-20 16:00 METAR CYOW 201600Z 17006KT 110V200 15SM SCT030 SCT100 SCT250 26/17 A3014 RMK
                 CU4AC1CI1 AC TR CI TR SLP208 DENSITY ALT 1500FT =
2018-08-20 15:00 METAR CYOW 201500Z 20005KT 120V250 15SM FEW025 FEW100 FEW250 24/17 A3015 RMK
                 CU1AC1CI1 CU TR AC TR SLP213 DENSITY ALT 1300FT =
2018-08-20 14:00 METAR CYOW 201400Z 23005KT 190V290 15SM FEW070 FEW250 22/17 A3016 RMK AC1CI1 CI
                 TR SLP213 DENSITY ALT 1100FT =
2018-08-20 13:00 METAR CYOW 201300Z 10003KT 030V110 15SM BKN071 18/16 A3016 RMK AC5 AC FLOCCUS
                 SLP215 DENSITY ALT 600FT =
2018-08-20 12:00 METAR CYOW 201200Z 06004KT 15SM BKN071 16/15 A3015 RMK AC6 SLP212 DENSITY ALT
                 400FT =
2018-08-20 11:00 METAR CYOW 201100Z 06004KT 15SM SCT070 15/14 A3014 RMK AC4 SLP209 =
2018-08-20 10:00 METAR CYOW 201000Z 10003KT 15SM BKN070 14/13 A3013 RMK AC5 SLP203 =
2018-08-20 09:00 METAR CYOW 200900Z 07004KT 15SM FEW200 14/14 A3011 RMK CI1 SLP198 =
2018-08-20 08:00 METAR CYOW 200800Z 06004KT 15SM SKC 15/14 A3011 RMK SLP196 =
2018-08-20 07:00 METAR CYOW 200700Z 06005KT 15SM SKC 16/14 A3010 RMK SLP194 DENSITY ALT 400FT =
2018-08-20 06:00 METAR CYOW 200600Z 04006KT 15SM SKC 16/14 A3010 RMK SLP193 DENSITY ALT 400FT =
2018-08-20 05:00 METAR CYOW 200500Z 04007KT 15SM SKC 17/14 A3009 RMK SLP192 DENSITY ALT 500FT =
2018-08-20 04:00 METAR CYOW 200400Z 04007KT 15SM SKC 17/14 A3009 RMK SLP191 DENSITY ALT 500FT =
2018-08-20 03:00 METAR CYOW 200300Z 08004KT 15SM SKC 17/14 A3009 RMK SLP189 DENSITY ALT 600FT =
2018-08-20 02:00 METAR CYOW 200200Z 09005KT 15SM FEW240 20/14 A3007 RMK CI1 SLP185 DENSITY ALT
                 900FT =
2018-08-20 01:00 METAR CYOW 200100Z 07005KT 15SM FEW240 19/14 A3007 RMK CI2 SLP183 DENSITY ALT
                 900FT =

Support USWX by starting your Amazon purchase here.